sensor_id;sensor_type;location;lat;lon;timestamp;temperature;humidity
13796;SHT30;40911;51.552;9.874;2022-12-18T00:01:26;-11.01;92.41
13796;SHT30;40911;51.552;9.874;2022-12-18T00:03:48;-11.14;92.00
13796;SHT30;40911;51.552;9.874;2022-12-18T00:06:10;-11.10;92.22
13796;SHT30;40911;51.552;9.874;2022-12-18T00:08:34;-11.04;92.89
13796;SHT30;40911;51.552;9.874;2022-12-18T00:11:03;-11.01;92.83
13796;SHT30;40911;51.552;9.874;2022-12-18T00:13:25;-10.96;92.56
13796;SHT30;40911;51.552;9.874;2022-12-18T00:15:48;-11.11;92.45
13796;SHT30;40911;51.552;9.874;2022-12-18T00:18:09;-11.11;92.60
13796;SHT30;40911;51.552;9.874;2022-12-18T00:20:35;-11.12;92.65
13796;SHT30;40911;51.552;9.874;2022-12-18T00:22:57;-11.21;92.54
13796;SHT30;40911;51.552;9.874;2022-12-18T00:25:19;-11.19;92.45
13796;SHT30;40911;51.552;9.874;2022-12-18T00:27:41;-11.19;92.61
13796;SHT30;40911;51.552;9.874;2022-12-18T00:30:03;-11.29;92.67
13796;SHT30;40911;51.552;9.874;2022-12-18T00:32:27;-11.24;92.92
13796;SHT30;40911;51.552;9.874;2022-12-18T00:34:48;-11.24;92.77
13796;SHT30;40911;51.552;9.874;2022-12-18T00:37:10;-11.25;92.73
13796;SHT30;40911;51.552;9.874;2022-12-18T00:39:32;-11.19;92.81
13796;SHT30;40911;51.552;9.874;2022-12-18T00:41:54;-11.21;92.60
13796;SHT30;40911;51.552;9.874;2022-12-18T00:44:33;-11.25;92.68
13796;SHT30;40911;51.552;9.874;2022-12-18T00:46:55;-11.18;92.71
13796;SHT30;40911;51.552;9.874;2022-12-18T00:49:19;-11.12;92.76
13796;SHT30;40911;51.552;9.874;2022-12-18T00:51:41;-11.11;92.78
13796;SHT30;40911;51.552;9.874;2022-12-18T00:54:03;-11.15;92.75
13796;SHT30;40911;51.552;9.874;2022-12-18T00:56:25;-11.08;92.71
13796;SHT30;40911;51.552;9.874;2022-12-18T00:58:47;-11.21;92.47
13796;SHT30;40911;51.552;9.874;2022-12-18T01:01:09;-11.25;92.41
13796;SHT30;40911;51.552;9.874;2022-12-18T01:03:31;-11.25;92.47
13796;SHT30;40911;51.552;9.874;2022-12-18T01:05:54;-11.36;92.34
13796;SHT30;40911;51.552;9.874;2022-12-18T01:08:16;-11.38;92.36
13796;SHT30;40911;51.552;9.874;2022-12-18T01:10:40;-11.43;92.32
13796;SHT30;40911;51.552;9.874;2022-12-18T01:13:02;-11.40;92.56
13796;SHT30;40911;51.552;9.874;2022-12-18T01:15:23;-11.42;92.56
13796;SHT30;40911;51.552;9.874;2022-12-18T01:17:45;-11.39;92.49
13796;SHT30;40911;51.552;9.874;2022-12-18T01:20:08;-11.46;92.20
13796;SHT30;40911;51.552;9.874;2022-12-18T01:22:32;-11.47;92.12
13796;SHT30;40911;51.552;9.874;2022-12-18T01:24:53;-11.47;92.23
13796;SHT30;40911;51.552;9.874;2022-12-18T01:27:15;-11.50;92.27
13796;SHT30;40911;51.552;9.874;2022-12-18T01:29:37;-11.34;92.55
13796;SHT30;40911;51.552;9.874;2022-12-18T01:31:59;-11.36;92.27
13796;SHT30;40911;51.552;9.874;2022-12-18T01:34:21;-11.42;92.04
13796;SHT30;40911;51.552;9.874;2022-12-18T01:36:43;-11.53;92.11
13796;SHT30;40911;51.552;9.874;2022-12-18T01:39:09;-11.49;92.26
13796;SHT30;40911;51.552;9.874;2022-12-18T01:41:33;-11.43;92.34
13796;SHT30;40911;51.552;9.874;2022-12-18T01:47:04;-11.59;92.46
13796;SHT30;40911;51.552;9.874;2022-12-18T01:49:26;-11.53;92.44
13796;SHT30;40911;51.552;9.874;2022-12-18T01:51:48;-11.50;92.36
13796;SHT30;40911;51.552;9.874;2022-12-18T01:54:11;-11.57;92.21
13796;SHT30;40911;51.552;9.874;2022-12-18T01:56:32;-11.59;92.16
13796;SHT30;40911;51.552;9.874;2022-12-18T01:58:57;-11.78;91.98
13796;SHT30;40911;51.552;9.874;2022-12-18T02:01:22;-11.73;92.31
13796;SHT30;40911;51.552;9.874;2022-12-18T02:03:44;-11.74;92.33
13796;SHT30;40911;51.552;9.874;2022-12-18T02:06:11;-11.71;92.25
13796;SHT30;40911;51.552;9.874;2022-12-18T02:08:39;-11.73;92.31
13796;SHT30;40911;51.552;9.874;2022-12-18T02:11:06;-11.74;92.35
13796;SHT30;40911;51.552;9.874;2022-12-18T02:13:34;-11.67;92.13
13796;SHT30;40911;51.552;9.874;2022-12-18T02:16:01;-11.67;92.08
13796;SHT30;40911;51.552;9.874;2022-12-18T02:18:28;-11.70;92.17
13796;SHT30;40911;51.552;9.874;2022-12-18T02:20:55;-11.74;92.22
13796;SHT30;40911;51.552;9.874;2022-12-18T02:23:28;-11.67;92.06
13796;SHT30;40911;51.552;9.874;2022-12-18T02:28:36;-11.75;91.96
13796;SHT30;40911;51.552;9.874;2022-12-18T02:31:01;-11.83;91.78
13796;SHT30;40911;51.552;9.874;2022-12-18T02:33:25;-11.77;91.80
13796;SHT30;40911;51.552;9.874;2022-12-18T02:35:49;-11.66;92.12
13796;SHT30;40911;51.552;9.874;2022-12-18T02:38:12;-11.66;92.05
13796;SHT30;40911;51.552;9.874;2022-12-18T02:40:36;-11.81;91.99
13796;SHT30;40911;51.552;9.874;2022-12-18T02:43:07;-11.75;92.19
13796;SHT30;40911;51.552;9.874;2022-12-18T02:45:29;-11.70;92.04
13796;SHT30;40911;51.552;9.874;2022-12-18T02:47:51;-11.71;91.88
13796;SHT30;40911;51.552;9.874;2022-12-18T02:50:18;-11.78;91.79
13796;SHT30;40911;51.552;9.874;2022-12-18T02:52:47;-11.89;91.65
13796;SHT30;40911;51.552;9.874;2022-12-18T02:55:22;-11.78;91.91
13796;SHT30;40911;51.552;9.874;2022-12-18T02:57:50;-11.87;91.88
13796;SHT30;40911;51.552;9.874;2022-12-18T03:00:19;-11.89;91.96
13796;SHT30;40911;51.552;9.874;2022-12-18T03:02:45;-11.97;91.82
13796;SHT30;40911;51.552;9.874;2022-12-18T03:05:12;-11.83;92.04
13796;SHT30;40911;51.552;9.874;2022-12-18T03:07:38;-11.90;91.74
13796;SHT30;40911;51.552;9.874;2022-12-18T03:10:00;-11.89;91.75
13796;SHT30;40911;51.552;9.874;2022-12-18T03:12:28;-11.97;91.66
13796;SHT30;40911;51.552;9.874;2022-12-18T03:14:54;-11.98;91.67
13796;SHT30;40911;51.552;9.874;2022-12-18T03:17:22;-11.94;91.67
13796;SHT30;40911;51.552;9.874;2022-12-18T03:19:46;-11.93;91.88
13796;SHT30;40911;51.552;9.874;2022-12-18T03:22:10;-12.05;91.68
13796;SHT30;40911;51.552;9.874;2022-12-18T03:24:33;-11.85;92.13
13796;SHT30;40911;51.552;9.874;2022-12-18T03:27:01;-11.91;92.02
13796;SHT30;40911;51.552;9.874;2022-12-18T03:29:27;-11.91;92.11
13796;SHT30;40911;51.552;9.874;2022-12-18T03:31:54;-12.00;92.03
13796;SHT30;40911;51.552;9.874;2022-12-18T03:34:22;-12.00;92.00
13796;SHT30;40911;51.552;9.874;2022-12-18T03:36:44;-11.97;92.10
13796;SHT30;40911;51.552;9.874;2022-12-18T03:39:06;-11.98;91.92
13796;SHT30;40911;51.552;9.874;2022-12-18T03:41:31;-12.00;92.05
13796;SHT30;40911;51.552;9.874;2022-12-18T03:43:59;-11.95;91.98
13796;SHT30;40911;51.552;9.874;2022-12-18T03:46:27;-12.02;91.72
13796;SHT30;40911;51.552;9.874;2022-12-18T03:48:55;-12.05;91.59
13796;SHT30;40911;51.552;9.874;2022-12-18T03:51:25;-12.05;91.90
13796;SHT30;40911;51.552;9.874;2022-12-18T03:53:53;-12.07;92.01
13796;SHT30;40911;51.552;9.874;2022-12-18T03:56:17;-12.12;91.98
13796;SHT30;40911;51.552;9.874;2022-12-18T03:58:40;-12.11;91.81
13796;SHT30;40911;51.552;9.874;2022-12-18T04:01:05;-12.04;91.93
13796;SHT30;40911;51.552;9.874;2022-12-18T04:03:29;-11.93;91.86
13796;SHT30;40911;51.552;9.874;2022-12-18T04:05:54;-11.98;91.59
13796;SHT30;40911;51.552;9.874;2022-12-18T04:08:18;-12.12;91.42
13796;SHT30;40911;51.552;9.874;2022-12-18T04:10:41;-12.12;91.50
13796;SHT30;40911;51.552;9.874;2022-12-18T04:13:03;-12.20;91.62
13796;SHT30;40911;51.552;9.874;2022-12-18T04:15:25;-12.20;92.05
13796;SHT30;40911;51.552;9.874;2022-12-18T04:17:48;-12.14;91.88
13796;SHT30;40911;51.552;9.874;2022-12-18T04:20:10;-12.12;91.68
13796;SHT30;40911;51.552;9.874;2022-12-18T04:22:32;-12.08;91.53
13796;SHT30;40911;51.552;9.874;2022-12-18T04:24:55;-12.12;91.56
13796;SHT30;40911;51.552;9.874;2022-12-18T04:27:17;-12.08;91.89
13796;SHT30;40911;51.552;9.874;2022-12-18T04:29:39;-12.17;91.58
13796;SHT30;40911;51.552;9.874;2022-12-18T04:32:01;-12.18;91.89
13796;SHT30;40911;51.552;9.874;2022-12-18T04:34:23;-12.15;91.96
13796;SHT30;40911;51.552;9.874;2022-12-18T04:36:45;-12.15;91.97
13796;SHT30;40911;51.552;9.874;2022-12-18T04:39:06;-12.25;91.90
13796;SHT30;40911;51.552;9.874;2022-12-18T04:41:30;-12.21;91.79
13796;SHT30;40911;51.552;9.874;2022-12-18T04:43:52;-12.15;91.69
13796;SHT30;40911;51.552;9.874;2022-12-18T04:46:13;-12.26;91.36
13796;SHT30;40911;51.552;9.874;2022-12-18T04:48:35;-12.28;91.47
13796;SHT30;40911;51.552;9.874;2022-12-18T04:50:57;-12.25;91.66
13796;SHT30;40911;51.552;9.874;2022-12-18T04:53:19;-12.24;91.91
13796;SHT30;40911;51.552;9.874;2022-12-18T04:55:41;-12.21;91.93
13796;SHT30;40911;51.552;9.874;2022-12-18T04:58:04;-12.26;91.98
13796;SHT30;40911;51.552;9.874;2022-12-18T05:00:26;-12.32;91.94
13796;SHT30;40911;51.552;9.874;2022-12-18T05:02:48;-12.32;91.97
13796;SHT30;40911;51.552;9.874;2022-12-18T05:05:10;-12.26;91.91
13796;SHT30;40911;51.552;9.874;2022-12-18T05:07:31;-12.25;91.70
13796;SHT30;40911;51.552;9.874;2022-12-18T05:09:53;-12.26;91.78
13796;SHT30;40911;51.552;9.874;2022-12-18T05:12:15;-12.29;91.93
13796;SHT30;40911;51.552;9.874;2022-12-18T05:14:38;-12.26;91.67
13796;SHT30;40911;51.552;9.874;2022-12-18T05:17:00;-12.25;91.77
13796;SHT30;40911;51.552;9.874;2022-12-18T05:19:22;-12.25;92.04
13796;SHT30;40911;51.552;9.874;2022-12-18T05:21:43;-12.31;91.94
13796;SHT30;40911;51.552;9.874;2022-12-18T05:24:06;-12.42;91.79
13796;SHT30;40911;51.552;9.874;2022-12-18T05:26:28;-12.35;91.89
13796;SHT30;40911;51.552;9.874;2022-12-18T05:28:49;-12.35;91.65
13796;SHT30;40911;51.552;9.874;2022-12-18T05:31:13;-12.39;91.37
13796;SHT30;40911;51.552;9.874;2022-12-18T05:33:35;-12.39;91.59
13796;SHT30;40911;51.552;9.874;2022-12-18T05:35:59;-12.39;91.53
13796;SHT30;40911;51.552;9.874;2022-12-18T05:38:23;-12.42;91.56
13796;SHT30;40911;51.552;9.874;2022-12-18T05:40:45;-12.46;91.56
13796;SHT30;40911;51.552;9.874;2022-12-18T05:43:07;-12.45;91.55
13796;SHT30;40911;51.552;9.874;2022-12-18T05:45:29;-12.43;91.48
13796;SHT30;40911;51.552;9.874;2022-12-18T05:47:52;-12.41;91.43
13796;SHT30;40911;51.552;9.874;2022-12-18T05:50:14;-12.45;91.28
13796;SHT30;40911;51.552;9.874;2022-12-18T05:52:35;-12.43;91.50
13796;SHT30;40911;51.552;9.874;2022-12-18T05:54:57;-12.50;91.63
13796;SHT30;40911;51.552;9.874;2022-12-18T05:57:20;-12.49;91.58
13796;SHT30;40911;51.552;9.874;2022-12-18T05:59:42;-12.57;91.45
13796;SHT30;40911;51.552;9.874;2022-12-18T06:02:03;-12.56;91.52
13796;SHT30;40911;51.552;9.874;2022-12-18T06:04:30;-12.42;91.84
13796;SHT30;40911;51.552;9.874;2022-12-18T06:06:52;-12.36;91.75
13796;SHT30;40911;51.552;9.874;2022-12-18T06:09:14;-12.39;91.55
13796;SHT30;40911;51.552;9.874;2022-12-18T06:11:36;-12.36;91.58
13796;SHT30;40911;51.552;9.874;2022-12-18T06:13:58;-12.48;91.35
13796;SHT30;40911;51.552;9.874;2022-12-18T06:16:20;-12.57;91.35
13796;SHT30;40911;51.552;9.874;2022-12-18T06:18:42;-12.64;91.32
13796;SHT30;40911;51.552;9.874;2022-12-18T06:21:05;-12.63;91.32
13796;SHT30;40911;51.552;9.874;2022-12-18T06:23:27;-12.60;91.37
13796;SHT30;40911;51.552;9.874;2022-12-18T06:25:49;-12.66;91.32
13796;SHT30;40911;51.552;9.874;2022-12-18T06:28:10;-12.56;91.56
13796;SHT30;40911;51.552;9.874;2022-12-18T06:30:32;-12.57;91.66
13796;SHT30;40911;51.552;9.874;2022-12-18T06:32:54;-12.54;91.70
13796;SHT30;40911;51.552;9.874;2022-12-18T06:35:17;-12.56;91.62
13796;SHT30;40911;51.552;9.874;2022-12-18T06:37:40;-12.60;91.42
13796;SHT30;40911;51.552;9.874;2022-12-18T06:40:02;-12.66;91.45
13796;SHT30;40911;51.552;9.874;2022-12-18T06:42:24;-12.71;91.63
13796;SHT30;40911;51.552;9.874;2022-12-18T06:44:46;-12.69;91.67
13796;SHT30;40911;51.552;9.874;2022-12-18T06:47:08;-12.67;91.62
13796;SHT30;40911;51.552;9.874;2022-12-18T06:49:29;-12.73;91.40
13796;SHT30;40911;51.552;9.874;2022-12-18T06:51:51;-12.71;91.44
13796;SHT30;40911;51.552;9.874;2022-12-18T06:54:14;-12.70;91.36
13796;SHT30;40911;51.552;9.874;2022-12-18T06:56:36;-12.69;91.36
13796;SHT30;40911;51.552;9.874;2022-12-18T06:58:58;-12.66;91.20
13796;SHT30;40911;51.552;9.874;2022-12-18T07:01:20;-12.71;91.07
13796;SHT30;40911;51.552;9.874;2022-12-18T07:03:42;-12.74;90.99
13796;SHT30;40911;51.552;9.874;2022-12-18T07:06:04;-12.69;91.31
13796;SHT30;40911;51.552;9.874;2022-12-18T07:08:26;-12.69;91.36
13796;SHT30;40911;51.552;9.874;2022-12-18T07:10:49;-12.74;91.40
13796;SHT30;40911;51.552;9.874;2022-12-18T07:13:11;-12.74;91.53
13796;SHT30;40911;51.552;9.874;2022-12-18T07:15:33;-12.80;91.36
13796;SHT30;40911;51.552;9.874;2022-12-18T07:17:55;-12.70;91.42
13796;SHT30;40911;51.552;9.874;2022-12-18T07:20:17;-12.73;91.22
13796;SHT30;40911;51.552;9.874;2022-12-18T07:22:38;-12.66;91.36
13796;SHT30;40911;51.552;9.874;2022-12-18T07:25:00;-12.67;91.50
13796;SHT30;40911;51.552;9.874;2022-12-18T07:27:23;-12.67;91.57
13796;SHT30;40911;51.552;9.874;2022-12-18T07:29:45;-12.69;91.51
13796;SHT30;40911;51.552;9.874;2022-12-18T07:32:07;-12.71;91.32
13796;SHT30;40911;51.552;9.874;2022-12-18T07:34:29;-12.74;91.20
13796;SHT30;40911;51.552;9.874;2022-12-18T07:36:51;-12.70;91.17
13796;SHT30;40911;51.552;9.874;2022-12-18T07:39:13;-12.67;91.29
13796;SHT30;40911;51.552;9.874;2022-12-18T07:41:34;-12.63;91.54
13796;SHT30;40911;51.552;9.874;2022-12-18T07:43:57;-12.63;91.34
13796;SHT30;40911;51.552;9.874;2022-12-18T07:46:19;-12.56;91.31
13796;SHT30;40911;51.552;9.874;2022-12-18T07:48:41;-12.60;91.07
13796;SHT30;40911;51.552;9.874;2022-12-18T07:51:05;-12.53;91.18
13796;SHT30;40911;51.552;9.874;2022-12-18T07:53:27;-12.50;91.39
13796;SHT30;40911;51.552;9.874;2022-12-18T07:55:49;-12.50;91.18
13796;SHT30;40911;51.552;9.874;2022-12-18T07:58:15;-12.48;91.14
13796;SHT30;40911;51.552;9.874;2022-12-18T08:00:39;-12.49;90.96
13796;SHT30;40911;51.552;9.874;2022-12-18T08:03:00;-12.35;91.39
13796;SHT30;40911;51.552;9.874;2022-12-18T08:05:22;-12.32;91.19
13796;SHT30;40911;51.552;9.874;2022-12-18T08:07:44;-12.33;91.03
13796;SHT30;40911;51.552;9.874;2022-12-18T08:10:07;-12.25;91.05
13796;SHT30;40911;51.552;9.874;2022-12-18T08:12:29;-12.15;91.10
13796;SHT30;40911;51.552;9.874;2022-12-18T08:14:51;-12.11;91.01
13796;SHT30;40911;51.552;9.874;2022-12-18T08:17:14;-12.04;90.84
13796;SHT30;40911;51.552;9.874;2022-12-18T08:19:35;-11.85;90.93
13796;SHT30;40911;51.552;9.874;2022-12-18T08:21:57;-11.67;90.81
13796;SHT30;40911;51.552;9.874;2022-12-18T08:24:19;-11.59;90.66
13796;SHT30;40911;51.552;9.874;2022-12-18T08:26:41;-11.39;90.71
13796;SHT30;40911;51.552;9.874;2022-12-18T08:29:03;-11.24;90.36
13796;SHT30;40911;51.552;9.874;2022-12-18T08:31:25;-10.96;90.42
13796;SHT30;40911;51.552;9.874;2022-12-18T08:33:50;-10.79;89.76
13796;SHT30;40911;51.552;9.874;2022-12-18T08:36:12;-10.65;90.02
13796;SHT30;40911;51.552;9.874;2022-12-18T08:38:34;-10.28;89.52
13796;SHT30;40911;51.552;9.874;2022-12-18T08:40:58;-10.05;89.27
13796;SHT30;40911;51.552;9.874;2022-12-18T08:43:20;-9.73;88.70
13796;SHT30;40911;51.552;9.874;2022-12-18T08:45:59;-9.56;87.98
13796;SHT30;40911;51.552;9.874;2022-12-18T08:48:21;-8.95;87.76
13796;SHT30;40911;51.552;9.874;2022-12-18T08:50:53;-8.66;87.16
13796;SHT30;40911;51.552;9.874;2022-12-18T08:53:15;-8.85;87.31
13796;SHT30;40911;51.552;9.874;2022-12-18T08:55:37;-8.97;87.79
13796;SHT30;40911;51.552;9.874;2022-12-18T08:57:58;-8.69;88.25
13796;SHT30;40911;51.552;9.874;2022-12-18T09:00:20;-8.52;87.79
13796;SHT30;40911;51.552;9.874;2022-12-18T09:02:42;-8.52;88.31
13796;SHT30;40911;51.552;9.874;2022-12-18T09:05:05;-8.32;88.24
13796;SHT30;40911;51.552;9.874;2022-12-18T09:07:28;-8.20;87.90
13796;SHT30;40911;51.552;9.874;2022-12-18T09:16:41;-7.87;87.52
13796;SHT30;40911;51.552;9.874;2022-12-18T09:19:04;-7.80;87.68
13796;SHT30;40911;51.552;9.874;2022-12-18T09:21:29;-7.73;88.01
13796;SHT30;40911;51.552;9.874;2022-12-18T09:23:53;-7.69;88.32
13796;SHT30;40911;51.552;9.874;2022-12-18T09:26:20;-7.69;88.27
13796;SHT30;40911;51.552;9.874;2022-12-18T09:28:42;-7.87;88.40
13796;SHT30;40911;51.552;9.874;2022-12-18T09:31:06;-7.82;88.52
13796;SHT30;40911;51.552;9.874;2022-12-18T09:33:29;-7.96;88.60
13796;SHT30;40911;51.552;9.874;2022-12-18T09:35:51;-7.90;89.30
13796;SHT30;40911;51.552;9.874;2022-12-18T09:38:15;-7.58;89.15
13796;SHT30;40911;51.552;9.874;2022-12-18T09:40:43;-7.52;88.45
13796;SHT30;40911;51.552;9.874;2022-12-18T09:43:06;-7.40;88.83
13796;SHT30;40911;51.552;9.874;2022-12-18T09:45:42;-7.17;88.58
13796;SHT30;40911;51.552;9.874;2022-12-18T09:48:10;-6.99;88.72
13796;SHT30;40911;51.552;9.874;2022-12-18T09:50:39;-6.89;88.35
13796;SHT30;40911;51.552;9.874;2022-12-18T09:53:05;-6.53;88.70
13796;SHT30;40911;51.552;9.874;2022-12-18T09:55:53;-6.29;89.07
13796;SHT30;40911;51.552;9.874;2022-12-18T09:58:24;-6.01;89.64
13796;SHT30;40911;51.552;9.874;2022-12-18T10:00:54;-5.83;89.61
13796;SHT30;40911;51.552;9.874;2022-12-18T10:03:34;-5.63;90.29
13796;SHT30;40911;51.552;9.874;2022-12-18T10:06:11;-5.72;90.20
13796;SHT30;40911;51.552;9.874;2022-12-18T10:08:40;-5.51;90.60
13796;SHT30;40911;51.552;9.874;2022-12-18T10:11:22;-5.45;89.95
13796;SHT30;40911;51.552;9.874;2022-12-18T10:13:52;-5.25;90.13
13796;SHT30;40911;51.552;9.874;2022-12-18T10:16:19;-5.04;89.86
13796;SHT30;40911;51.552;9.874;2022-12-18T10:19:03;-4.96;89.45
13796;SHT30;40911;51.552;9.874;2022-12-18T10:21:34;-4.76;89.07
13796;SHT30;40911;51.552;9.874;2022-12-18T10:24:04;-4.73;89.13
13796;SHT30;40911;51.552;9.874;2022-12-18T10:26:26;-4.60;88.89
13796;SHT30;40911;51.552;9.874;2022-12-18T10:28:48;-4.65;88.77
13796;SHT30;40911;51.552;9.874;2022-12-18T10:31:15;-4.53;88.84
13796;SHT30;40911;51.552;9.874;2022-12-18T10:33:38;-4.27;88.98
13796;SHT30;40911;51.552;9.874;2022-12-18T10:36:01;-4.21;88.74
13796;SHT30;40911;51.552;9.874;2022-12-18T10:38:26;-4.18;88.97
13796;SHT30;40911;51.552;9.874;2022-12-18T10:40:50;-4.10;88.69
13796;SHT30;40911;51.552;9.874;2022-12-18T10:43:26;-4.17;88.80
13796;SHT30;40911;51.552;9.874;2022-12-18T10:45:59;-4.25;89.53
13796;SHT30;40911;51.552;9.874;2022-12-18T10:48:22;-4.22;89.82
13796;SHT30;40911;51.552;9.874;2022-12-18T10:50:48;-4.21;89.62
13796;SHT30;40911;51.552;9.874;2022-12-18T10:53:19;-4.14;89.99
13796;SHT30;40911;51.552;9.874;2022-12-18T10:55:45;-4.10;90.04
13796;SHT30;40911;51.552;9.874;2022-12-18T10:58:26;-3.96;89.77
13796;SHT30;40911;51.552;9.874;2022-12-18T11:01:03;-4.04;90.39
13796;SHT30;40911;51.552;9.874;2022-12-18T11:03:31;-3.85;89.87
13796;SHT30;40911;51.552;9.874;2022-12-18T11:06:01;-3.89;89.95
13796;SHT30;40911;51.552;9.874;2022-12-18T11:08:23;-3.78;89.98
13796;SHT30;40911;51.552;9.874;2022-12-18T11:10:46;-3.55;89.48
13796;SHT30;40911;51.552;9.874;2022-12-18T11:13:16;-3.68;89.81
13796;SHT30;40911;51.552;9.874;2022-12-18T11:15:41;-3.53;89.01
13796;SHT30;40911;51.552;9.874;2022-12-18T11:18:03;-3.46;88.64
13796;SHT30;40911;51.552;9.874;2022-12-18T11:20:35;-3.45;89.04
13796;SHT30;40911;51.552;9.874;2022-12-18T11:23:00;-3.35;88.53
13796;SHT30;40911;51.552;9.874;2022-12-18T11:25:23;-3.34;88.86
13796;SHT30;40911;51.552;9.874;2022-12-18T11:27:59;-3.21;88.18
13796;SHT30;40911;51.552;9.874;2022-12-18T11:30:24;-3.25;88.06
13796;SHT30;40911;51.552;9.874;2022-12-18T11:32:53;-3.27;88.58
13796;SHT30;40911;51.552;9.874;2022-12-18T11:35:19;-3.24;87.82
13796;SHT30;40911;51.552;9.874;2022-12-18T11:37:44;-3.20;88.03
13796;SHT30;40911;51.552;9.874;2022-12-18T11:40:13;-3.28;88.66
13796;SHT30;40911;51.552;9.874;2022-12-18T11:42:39;-3.18;88.49
13796;SHT30;40911;51.552;9.874;2022-12-18T11:45:27;-3.15;87.98
13796;SHT30;40911;51.552;9.874;2022-12-18T11:47:54;-3.08;88.14
13796;SHT30;40911;51.552;9.874;2022-12-18T11:50:20;-3.01;87.84
13796;SHT30;40911;51.552;9.874;2022-12-18T11:52:43;-2.93;87.86
13796;SHT30;40911;51.552;9.874;2022-12-18T11:55:09;-3.03;87.94
13796;SHT30;40911;51.552;9.874;2022-12-18T11:57:36;-3.04;88.16
13796;SHT30;40911;51.552;9.874;2022-12-18T12:00:09;-2.99;88.35
13796;SHT30;40911;51.552;9.874;2022-12-18T12:02:45;-2.97;87.90
13796;SHT30;40911;51.552;9.874;2022-12-18T12:05:20;-3.04;88.09
13796;SHT30;40911;51.552;9.874;2022-12-18T12:08:05;-3.07;88.50
13796;SHT30;40911;51.552;9.874;2022-12-18T12:10:41;-3.05;87.42
13796;SHT30;40911;51.552;9.874;2022-12-18T12:13:19;-3.07;87.82
13796;SHT30;40911;51.552;9.874;2022-12-18T12:15:54;-3.01;88.03
13796;SHT30;40911;51.552;9.874;2022-12-18T12:18:28;-3.17;88.71
13796;SHT30;40911;51.552;9.874;2022-12-18T12:21:07;-3.04;88.50
13796;SHT30;40911;51.552;9.874;2022-12-18T12:23:39;-3.01;87.98
13796;SHT30;40911;51.552;9.874;2022-12-18T12:26:06;-2.92;87.59
13796;SHT30;40911;51.552;9.874;2022-12-18T12:28:43;-2.99;87.63
13796;SHT30;40911;51.552;9.874;2022-12-18T12:31:19;-3.03;88.28
13796;SHT30;40911;51.552;9.874;2022-12-18T12:33:51;-2.94;88.33
13796;SHT30;40911;51.552;9.874;2022-12-18T12:36:20;-3.00;88.71
13796;SHT30;40911;51.552;9.874;2022-12-18T12:38:45;-2.90;87.96
13796;SHT30;40911;51.552;9.874;2022-12-18T12:41:13;-2.92;87.98
13796;SHT30;40911;51.552;9.874;2022-12-18T12:43:50;-2.89;88.07
13796;SHT30;40911;51.552;9.874;2022-12-18T12:46:16;-2.94;88.48
13796;SHT30;40911;51.552;9.874;2022-12-18T12:48:42;-2.94;88.45
13796;SHT30;40911;51.552;9.874;2022-12-18T12:51:11;-2.93;88.37
13796;SHT30;40911;51.552;9.874;2022-12-18T12:53:36;-2.89;88.64
13796;SHT30;40911;51.552;9.874;2022-12-18T12:55:59;-2.70;87.14
13796;SHT30;40911;51.552;9.874;2022-12-18T12:58:28;-2.61;86.97
13796;SHT30;40911;51.552;9.874;2022-12-18T13:00:56;-2.63;87.26
13796;SHT30;40911;51.552;9.874;2022-12-18T13:03:27;-2.72;87.22
13796;SHT30;40911;51.552;9.874;2022-12-18T13:05:55;-2.79;87.59
13796;SHT30;40911;51.552;9.874;2022-12-18T13:08:24;-2.82;88.32
13796;SHT30;40911;51.552;9.874;2022-12-18T13:10:46;-2.86;87.90
13796;SHT30;40911;51.552;9.874;2022-12-18T13:13:09;-2.68;87.02
13796;SHT30;40911;51.552;9.874;2022-12-18T13:15:34;-2.86;87.46
13796;SHT30;40911;51.552;9.874;2022-12-18T13:18:18;-2.76;87.77
13796;SHT30;40911;51.552;9.874;2022-12-18T13:20:44;-2.84;88.09
13796;SHT30;40911;51.552;9.874;2022-12-18T13:23:26;-2.90;88.39
13796;SHT30;40911;51.552;9.874;2022-12-18T13:25:50;-2.73;87.32
13796;SHT30;40911;51.552;9.874;2022-12-18T13:28:13;-2.86;87.62
13796;SHT30;40911;51.552;9.874;2022-12-18T13:30:53;-2.80;87.08
13796;SHT30;40911;51.552;9.874;2022-12-18T13:33:40;-2.69;86.21
13796;SHT30;40911;51.552;9.874;2022-12-18T13:36:13;-2.89;87.78
13796;SHT30;40911;51.552;9.874;2022-12-18T13:38:37;-2.97;87.94
13796;SHT30;40911;51.552;9.874;2022-12-18T13:40:59;-2.86;87.52
13796;SHT30;40911;51.552;9.874;2022-12-18T13:43:29;-2.92;87.17
13796;SHT30;40911;51.552;9.874;2022-12-18T13:46:00;-2.99;87.71
13796;SHT30;40911;51.552;9.874;2022-12-18T13:48:24;-3.00;87.46
13796;SHT30;40911;51.552;9.874;2022-12-18T13:50:59;-3.08;88.09
13796;SHT30;40911;51.552;9.874;2022-12-18T13:53:27;-3.08;88.08
13796;SHT30;40911;51.552;9.874;2022-12-18T13:55:49;-3.08;87.72
13796;SHT30;40911;51.552;9.874;2022-12-18T13:58:12;-3.14;87.78
13796;SHT30;40911;51.552;9.874;2022-12-18T14:00:33;-3.07;87.23
13796;SHT30;40911;51.552;9.874;2022-12-18T14:02:55;-3.14;87.78
13796;SHT30;40911;51.552;9.874;2022-12-18T14:05:22;-3.11;87.78
13796;SHT30;40911;51.552;9.874;2022-12-18T14:11:06;-3.22;87.48
13796;SHT30;40911;51.552;9.874;2022-12-18T14:13:34;-3.32;87.87
13796;SHT30;40911;51.552;9.874;2022-12-18T14:16:11;-3.28;87.69
13796;SHT30;40911;51.552;9.874;2022-12-18T14:22:18;-3.32;87.27
13796;SHT30;40911;51.552;9.874;2022-12-18T14:25:16;-3.27;86.51
13796;SHT30;40911;51.552;9.874;2022-12-18T14:27:50;-3.38;87.32
13796;SHT30;40911;51.552;9.874;2022-12-18T14:30:28;-3.32;86.63
13796;SHT30;40911;51.552;9.874;2022-12-18T14:33:00;-3.10;85.50
13796;SHT30;40911;51.552;9.874;2022-12-18T14:35:26;-3.22;86.18
13796;SHT30;40911;51.552;9.874;2022-12-18T14:37:49;-3.45;87.36
13796;SHT30;40911;51.552;9.874;2022-12-18T14:40:11;-3.48;87.54
13796;SHT30;40911;51.552;9.874;2022-12-18T14:42:52;-3.51;87.59
13796;SHT30;40911;51.552;9.874;2022-12-18T14:45:33;-3.45;87.11
13796;SHT30;40911;51.552;9.874;2022-12-18T14:47:58;-3.43;86.44
13796;SHT30;40911;51.552;9.874;2022-12-18T14:50:23;-3.43;86.50
13796;SHT30;40911;51.552;9.874;2022-12-18T14:53:29;-3.38;86.13
13796;SHT30;40911;51.552;9.874;2022-12-18T14:56:42;-3.45;86.44
13796;SHT30;40911;51.552;9.874;2022-12-18T14:59:23;-3.45;85.98
13796;SHT30;40911;51.552;9.874;2022-12-18T15:01:56;-3.53;86.57
13796;SHT30;40911;51.552;9.874;2022-12-18T15:04:25;-3.46;85.99
13796;SHT30;40911;51.552;9.874;2022-12-18T15:09:31;-3.55;86.79
13796;SHT30;40911;51.552;9.874;2022-12-18T15:12:26;-3.59;86.79
13796;SHT30;40911;51.552;9.874;2022-12-18T15:14:52;-3.63;87.24
13796;SHT30;40911;51.552;9.874;2022-12-18T15:17:40;-3.58;86.66
13796;SHT30;40911;51.552;9.874;2022-12-18T15:20:17;-3.49;85.76
13796;SHT30;40911;51.552;9.874;2022-12-18T15:22:56;-3.63;86.78
13796;SHT30;40911;51.552;9.874;2022-12-18T15:25:36;-3.70;87.37
13796;SHT30;40911;51.552;9.874;2022-12-18T15:28:23;-3.69;87.19
13796;SHT30;40911;51.552;9.874;2022-12-18T15:31:17;-3.52;85.99
13796;SHT30;40911;51.552;9.874;2022-12-18T15:33:44;-3.60;86.29
13796;SHT30;40911;51.552;9.874;2022-12-18T15:36:16;-3.52;86.19
13796;SHT30;40911;51.552;9.874;2022-12-18T15:38:46;-3.56;86.41